sensor_id;sensor_type;location;lat;lon;timestamp;P1;durP1;ratioP1;P2;durP2;ratioP2
74510;SDS011;62991;50.040;18.400;2023-06-10T00:02:55;17.98;;;9.13;;
74510;SDS011;62991;50.040;18.400;2023-06-10T00:05:56;19.70;;;8.95;;
74510;SDS011;62991;50.040;18.400;2023-06-10T00:08:56;19.67;;;9.32;;
74510;SDS011;62991;50.040;18.400;2023-06-10T00:11:57;19.33;;;9.15;;
74510;SDS011;62991;50.040;18.400;2023-06-10T00:14:59;18.25;;;8.93;;
74510;SDS011;62991;50.040;18.400;2023-06-10T00:18:00;20.98;;;9.40;;
74510;SDS011;62991;50.040;18.400;2023-06-10T00:21:02;20.15;;;10.18;;
74510;SDS011;62991;50.040;18.400;2023-06-10T00:24:05;20.15;;;9.60;;
74510;SDS011;62991;50.040;18.400;2023-06-10T00:27:12;32.63;;;10.70;;
74510;SDS011;62991;50.040;18.400;2023-06-10T00:30:12;23.33;;;10.00;;
74510;SDS011;62991;50.040;18.400;2023-06-10T00:33:13;19.85;;;9.23;;
74510;SDS011;62991;50.040;18.400;2023-06-10T00:36:14;17.88;;;8.77;;
74510;SDS011;62991;50.040;18.400;2023-06-10T00:39:14;34.42;;;9.15;;
74510;SDS011;62991;50.040;18.400;2023-06-10T00:42:16;28.40;;;9.80;;
74510;SDS011;62991;50.040;18.400;2023-06-10T00:45:17;17.38;;;8.00;;
74510;SDS011;62991;50.040;18.400;2023-06-10T00:48:18;21.83;;;7.22;;
74510;SDS011;62991;50.040;18.400;2023-06-10T00:51:19;21.63;;;7.70;;
74510;SDS011;62991;50.040;18.400;2023-06-10T00:54:20;16.92;;;7.60;;
74510;SDS011;62991;50.040;18.400;2023-06-10T00:57:21;21.83;;;7.97;;
74510;SDS011;62991;50.040;18.400;2023-06-10T01:00:22;22.77;;;8.20;;
74510;SDS011;62991;50.040;18.400;2023-06-10T01:03:23;23.27;;;8.15;;
74510;SDS011;62991;50.040;18.400;2023-06-10T01:06:38;30.50;;;9.13;;
74510;SDS011;62991;50.040;18.400;2023-06-10T01:09:54;16.98;;;7.90;;
74510;SDS011;62991;50.040;18.400;2023-06-10T01:16:07;22.70;;;9.63;;
74510;SDS011;62991;50.040;18.400;2023-06-10T01:19:08;28.58;;;9.52;;
74510;SDS011;62991;50.040;18.400;2023-06-10T01:22:09;34.03;;;10.85;;
74510;SDS011;62991;50.040;18.400;2023-06-10T01:25:10;33.03;;;11.05;;
74510;SDS011;62991;50.040;18.400;2023-06-10T01:28:17;28.58;;;11.77;;
74510;SDS011;62991;50.040;18.400;2023-06-10T01:31:41;21.55;;;10.02;;
74510;SDS011;62991;50.040;18.400;2023-06-10T01:34:47;66.55;;;12.93;;
74510;SDS011;62991;50.040;18.400;2023-06-10T01:37:49;35.08;;;11.23;;
74510;SDS011;62991;50.040;18.400;2023-06-10T01:40:53;28.52;;;10.63;;
74510;SDS011;62991;50.040;18.400;2023-06-10T01:43:55;44.42;;;11.07;;
74510;SDS011;62991;50.040;18.400;2023-06-10T01:46:56;48.92;;;10.07;;
74510;SDS011;62991;50.040;18.400;2023-06-10T01:49:56;62.25;;;13.20;;
74510;SDS011;62991;50.040;18.400;2023-06-10T01:52:58;29.63;;;10.55;;
74510;SDS011;62991;50.040;18.400;2023-06-10T01:55:59;51.83;;;11.30;;
74510;SDS011;62991;50.040;18.400;2023-06-10T01:59:00;30.17;;;11.05;;
74510;SDS011;62991;50.040;18.400;2023-06-10T02:02:00;42.17;;;12.25;;
74510;SDS011;62991;50.040;18.400;2023-06-10T02:05:01;78.85;;;13.35;;
74510;SDS011;62991;50.040;18.400;2023-06-10T02:08:02;30.85;;;12.00;;
74510;SDS011;62991;50.040;18.400;2023-06-10T02:11:02;29.65;;;11.23;;
74510;SDS011;62991;50.040;18.400;2023-06-10T02:14:03;23.50;;;10.98;;
74510;SDS011;62991;50.040;18.400;2023-06-10T02:17:04;33.53;;;12.30;;
74510;SDS011;62991;50.040;18.400;2023-06-10T02:20:05;23.50;;;11.25;;
74510;SDS011;62991;50.040;18.400;2023-06-10T02:23:07;28.75;;;11.35;;
74510;SDS011;62991;50.040;18.400;2023-06-10T02:26:07;30.55;;;12.35;;
74510;SDS011;62991;50.040;18.400;2023-06-10T02:29:08;26.30;;;11.05;;
74510;SDS011;62991;50.040;18.400;2023-06-10T02:32:09;27.60;;;12.18;;
74510;SDS011;62991;50.040;18.400;2023-06-10T02:35:10;31.60;;;11.65;;
74510;SDS011;62991;50.040;18.400;2023-06-10T02:38:12;26.08;;;11.02;;
74510;SDS011;62991;50.040;18.400;2023-06-10T02:41:13;30.60;;;11.85;;
74510;SDS011;62991;50.040;18.400;2023-06-10T02:44:13;25.30;;;11.40;;
74510;SDS011;62991;50.040;18.400;2023-06-10T02:47:14;33.10;;;12.57;;
74510;SDS011;62991;50.040;18.400;2023-06-10T02:50:15;27.27;;;11.05;;
74510;SDS011;62991;50.040;18.400;2023-06-10T02:53:16;31.73;;;12.52;;
74510;SDS011;62991;50.040;18.400;2023-06-10T02:56:16;29.25;;;11.68;;
74510;SDS011;62991;50.040;18.400;2023-06-10T02:59:17;29.55;;;11.60;;
74510;SDS011;62991;50.040;18.400;2023-06-10T03:02:18;27.05;;;10.60;;
74510;SDS011;62991;50.040;18.400;2023-06-10T03:05:20;29.67;;;10.70;;
74510;SDS011;62991;50.040;18.400;2023-06-10T03:08:22;31.17;;;11.45;;
74510;SDS011;62991;50.040;18.400;2023-06-10T03:11:23;37.05;;;12.88;;
74510;SDS011;62991;50.040;18.400;2023-06-10T03:14:24;29.13;;;12.13;;
74510;SDS011;62991;50.040;18.400;2023-06-10T03:17:25;27.98;;;12.70;;
74510;SDS011;62991;50.040;18.400;2023-06-10T03:20:26;25.13;;;11.95;;
74510;SDS011;62991;50.040;18.400;2023-06-10T03:23:27;26.42;;;11.73;;
74510;SDS011;62991;50.040;18.400;2023-06-10T03:26:29;32.45;;;12.77;;
74510;SDS011;62991;50.040;18.400;2023-06-10T03:29:29;31.60;;;12.65;;
74510;SDS011;62991;50.040;18.400;2023-06-10T03:32:30;27.17;;;11.57;;
74510;SDS011;62991;50.040;18.400;2023-06-10T03:35:31;34.47;;;11.52;;
74510;SDS011;62991;50.040;18.400;2023-06-10T03:38:32;27.40;;;12.57;;
74510;SDS011;62991;50.040;18.400;2023-06-10T03:41:33;29.50;;;12.48;;
74510;SDS011;62991;50.040;18.400;2023-06-10T03:44:33;36.22;;;12.73;;
74510;SDS011;62991;50.040;18.400;2023-06-10T03:47:34;32.72;;;12.98;;
74510;SDS011;62991;50.040;18.400;2023-06-10T03:50:40;29.85;;;12.52;;
74510;SDS011;62991;50.040;18.400;2023-06-10T03:53:41;33.35;;;13.13;;
74510;SDS011;62991;50.040;18.400;2023-06-10T03:56:41;29.33;;;12.23;;
74510;SDS011;62991;50.040;18.400;2023-06-10T03:59:42;37.60;;;17.63;;
74510;SDS011;62991;50.040;18.400;2023-06-10T04:02:43;37.88;;;14.10;;
74510;SDS011;62991;50.040;18.400;2023-06-10T04:05:49;31.60;;;13.15;;
74510;SDS011;62991;50.040;18.400;2023-06-10T04:08:50;35.80;;;14.38;;
74510;SDS011;62991;50.040;18.400;2023-06-10T04:11:51;31.05;;;13.23;;
74510;SDS011;62991;50.040;18.400;2023-06-10T04:14:52;36.03;;;13.75;;
74510;SDS011;62991;50.040;18.400;2023-06-10T04:17:53;29.27;;;13.90;;
74510;SDS011;62991;50.040;18.400;2023-06-10T04:20:54;28.25;;;12.38;;
74510;SDS011;62991;50.040;18.400;2023-06-10T04:23:55;31.20;;;12.88;;
74510;SDS011;62991;50.040;18.400;2023-06-10T04:26:56;27.33;;;11.73;;
74510;SDS011;62991;50.040;18.400;2023-06-10T04:29:57;30.92;;;13.10;;
74510;SDS011;62991;50.040;18.400;2023-06-10T04:32:57;29.30;;;12.20;;
74510;SDS011;62991;50.040;18.400;2023-06-10T04:35:58;24.00;;;11.18;;
74510;SDS011;62991;50.040;18.400;2023-06-10T04:38:59;33.58;;;12.70;;
74510;SDS011;62991;50.040;18.400;2023-06-10T04:42:00;27.17;;;11.93;;
74510;SDS011;62991;50.040;18.400;2023-06-10T04:45:01;29.88;;;12.90;;
74510;SDS011;62991;50.040;18.400;2023-06-10T04:48:03;32.70;;;12.98;;
74510;SDS011;62991;50.040;18.400;2023-06-10T04:51:04;30.30;;;13.25;;
74510;SDS011;62991;50.040;18.400;2023-06-10T04:54:05;26.08;;;12.13;;
74510;SDS011;62991;50.040;18.400;2023-06-10T04:57:06;32.97;;;14.48;;
74510;SDS011;62991;50.040;18.400;2023-06-10T05:00:07;33.85;;;14.02;;
74510;SDS011;62991;50.040;18.400;2023-06-10T05:03:09;28.60;;;13.00;;
74510;SDS011;62991;50.040;18.400;2023-06-10T05:06:09;30.00;;;13.52;;
74510;SDS011;62991;50.040;18.400;2023-06-10T05:09:10;31.55;;;14.10;;
74510;SDS011;62991;50.040;18.400;2023-06-10T05:12:11;35.30;;;14.43;;
74510;SDS011;62991;50.040;18.400;2023-06-10T05:15:11;29.50;;;13.73;;
74510;SDS011;62991;50.040;18.400;2023-06-10T05:18:12;31.65;;;13.60;;
74510;SDS011;62991;50.040;18.400;2023-06-10T05:21:13;29.40;;;13.95;;
74510;SDS011;62991;50.040;18.400;2023-06-10T05:24:13;29.00;;;13.70;;
74510;SDS011;62991;50.040;18.400;2023-06-10T05:27:14;30.33;;;14.63;;
74510;SDS011;62991;50.040;18.400;2023-06-10T05:30:15;28.98;;;13.75;;
74510;SDS011;62991;50.040;18.400;2023-06-10T05:33:18;30.27;;;13.75;;
74510;SDS011;62991;50.040;18.400;2023-06-10T05:36:19;27.30;;;13.02;;
74510;SDS011;62991;50.040;18.400;2023-06-10T05:39:20;28.23;;;13.13;;
74510;SDS011;62991;50.040;18.400;2023-06-10T05:42:20;29.40;;;13.93;;
74510;SDS011;62991;50.040;18.400;2023-06-10T05:45:21;32.92;;;13.95;;
74510;SDS011;62991;50.040;18.400;2023-06-10T05:48:22;23.98;;;12.30;;
74510;SDS011;62991;50.040;18.400;2023-06-10T05:51:23;27.75;;;12.70;;
74510;SDS011;62991;50.040;18.400;2023-06-10T05:54:23;23.08;;;11.90;;
74510;SDS011;62991;50.040;18.400;2023-06-10T05:57:25;20.83;;;11.23;;
74510;SDS011;62991;50.040;18.400;2023-06-10T06:00:26;32.03;;;12.10;;
74510;SDS011;62991;50.040;18.400;2023-06-10T06:03:27;26.52;;;12.40;;
74510;SDS011;62991;50.040;18.400;2023-06-10T06:06:28;18.52;;;10.63;;
74510;SDS011;62991;50.040;18.400;2023-06-10T06:09:29;19.67;;;10.93;;
74510;SDS011;62991;50.040;18.400;2023-06-10T06:12:30;20.65;;;11.68;;
74510;SDS011;62991;50.040;18.400;2023-06-10T06:15:30;21.77;;;10.77;;
74510;SDS011;62991;50.040;18.400;2023-06-10T06:18:31;19.23;;;10.32;;
74510;SDS011;62991;50.040;18.400;2023-06-10T06:21:32;18.63;;;9.43;;
74510;SDS011;62991;50.040;18.400;2023-06-10T06:24:33;18.20;;;9.32;;
74510;SDS011;62991;50.040;18.400;2023-06-10T06:27:33;14.82;;;8.27;;
74510;SDS011;62991;50.040;18.400;2023-06-10T06:30:34;22.58;;;8.80;;
74510;SDS011;62991;50.040;18.400;2023-06-10T06:33:35;14.02;;;8.70;;
74510;SDS011;62991;50.040;18.400;2023-06-10T06:36:36;20.10;;;8.27;;
74510;SDS011;62991;50.040;18.400;2023-06-10T06:39:37;15.80;;;8.00;;
74510;SDS011;62991;50.040;18.400;2023-06-10T06:42:37;18.40;;;9.00;;
74510;SDS011;62991;50.040;18.400;2023-06-10T06:45:38;15.07;;;8.27;;
74510;SDS011;62991;50.040;18.400;2023-06-10T06:48:39;17.45;;;8.55;;
74510;SDS011;62991;50.040;18.400;2023-06-10T06:51:39;13.50;;;7.82;;
74510;SDS011;62991;50.040;18.400;2023-06-10T06:54:40;19.17;;;8.20;;
74510;SDS011;62991;50.040;18.400;2023-06-10T06:57:40;19.60;;;8.55;;
74510;SDS011;62991;50.040;18.400;2023-06-10T07:00:41;13.13;;;7.88;;
74510;SDS011;62991;50.040;18.400;2023-06-10T07:03:42;13.52;;;8.45;;
74510;SDS011;62991;50.040;18.400;2023-06-10T07:06:42;14.68;;;7.50;;
74510;SDS011;62991;50.040;18.400;2023-06-10T07:09:43;14.90;;;8.27;;
74510;SDS011;62991;50.040;18.400;2023-06-10T07:12:44;17.27;;;8.38;;
74510;SDS011;62991;50.040;18.400;2023-06-10T07:15:44;18.40;;;9.45;;
74510;SDS011;62991;50.040;18.400;2023-06-10T07:18:45;16.98;;;8.18;;
74510;SDS011;62991;50.040;18.400;2023-06-10T07:21:46;15.38;;;8.40;;
74510;SDS011;62991;50.040;18.400;2023-06-10T07:24:47;18.88;;;7.03;;
74510;SDS011;62991;50.040;18.400;2023-06-10T07:27:48;15.93;;;8.10;;
74510;SDS011;62991;50.040;18.400;2023-06-10T07:30:49;14.65;;;7.97;;
74510;SDS011;62991;50.040;18.400;2023-06-10T07:33:50;15.02;;;7.82;;
74510;SDS011;62991;50.040;18.400;2023-06-10T07:36:51;11.18;;;7.07;;
74510;SDS011;62991;50.040;18.400;2023-06-10T07:39:51;14.10;;;7.75;;
74510;SDS011;62991;50.040;18.400;2023-06-10T07:42:52;14.32;;;7.95;;
74510;SDS011;62991;50.040;18.400;2023-06-10T07:45:53;15.05;;;7.85;;
74510;SDS011;62991;50.040;18.400;2023-06-10T07:48:54;13.20;;;7.00;;
74510;SDS011;62991;50.040;18.400;2023-06-10T07:51:55;13.65;;;7.03;;
74510;SDS011;62991;50.040;18.400;2023-06-10T07:54:55;13.95;;;6.93;;
74510;SDS011;62991;50.040;18.400;2023-06-10T07:57:56;12.15;;;7.13;;
74510;SDS011;62991;50.040;18.400;2023-06-10T08:00:57;12.35;;;7.28;;
74510;SDS011;62991;50.040;18.400;2023-06-10T08:03:57;12.30;;;7.78;;
74510;SDS011;62991;50.040;18.400;2023-06-10T08:06:58;12.40;;;7.10;;
74510;SDS011;62991;50.040;18.400;2023-06-10T08:09:59;12.88;;;6.75;;
74510;SDS011;62991;50.040;18.400;2023-06-10T08:13:00;12.90;;;7.63;;
74510;SDS011;62991;50.040;18.400;2023-06-10T08:16:01;12.82;;;7.20;;
74510;SDS011;62991;50.040;18.400;2023-06-10T08:19:02;12.27;;;6.97;;
74510;SDS011;62991;50.040;18.400;2023-06-10T08:22:02;15.10;;;6.93;;
74510;SDS011;62991;50.040;18.400;2023-06-10T08:25:03;11.88;;;6.05;;
74510;SDS011;62991;50.040;18.400;2023-06-10T08:28:05;10.88;;;6.72;;
74510;SDS011;62991;50.040;18.400;2023-06-10T08:31:05;11.48;;;6.60;;
74510;SDS011;62991;50.040;18.400;2023-06-10T08:34:06;13.98;;;6.63;;
74510;SDS011;62991;50.040;18.400;2023-06-10T08:37:07;10.40;;;6.65;;
74510;SDS011;62991;50.040;18.400;2023-06-10T08:40:08;12.30;;;7.30;;
74510;SDS011;62991;50.040;18.400;2023-06-10T08:46:32;12.02;;;7.03;;
74510;SDS011;62991;50.040;18.400;2023-06-10T08:49:34;12.30;;;5.95;;
74510;SDS011;62991;50.040;18.400;2023-06-10T08:52:42;11.60;;;6.82;;
74510;SDS011;62991;50.040;18.400;2023-06-10T08:55:44;11.60;;;6.78;;
74510;SDS011;62991;50.040;18.400;2023-06-10T08:58:51;12.57;;;6.70;;
74510;SDS011;62991;50.040;18.400;2023-06-10T09:01:53;12.02;;;7.43;;
74510;SDS011;62991;50.040;18.400;2023-06-10T09:04:55;12.30;;;6.43;;
74510;SDS011;62991;50.040;18.400;2023-06-10T09:07:57;16.20;;;6.85;;
74510;SDS011;62991;50.040;18.400;2023-06-10T09:10:57;11.95;;;6.18;;
74510;SDS011;62991;50.040;18.400;2023-06-10T09:13:58;13.32;;;7.07;;
74510;SDS011;62991;50.040;18.400;2023-06-10T09:16:59;11.02;;;6.82;;
74510;SDS011;62991;50.040;18.400;2023-06-10T09:20:00;12.13;;;7.50;;
74510;SDS011;62991;50.040;18.400;2023-06-10T09:23:02;11.05;;;6.55;;
74510;SDS011;62991;50.040;18.400;2023-06-10T09:26:07;13.77;;;7.03;;
74510;SDS011;62991;50.040;18.400;2023-06-10T09:29:08;14.55;;;7.00;;
74510;SDS011;62991;50.040;18.400;2023-06-10T09:32:12;11.57;;;6.50;;
74510;SDS011;62991;50.040;18.400;2023-06-10T09:35:13;14.45;;;7.20;;
74510;SDS011;62991;50.040;18.400;2023-06-10T09:38:14;12.70;;;6.95;;
74510;SDS011;62991;50.040;18.400;2023-06-10T09:41:20;12.85;;;7.32;;
74510;SDS011;62991;50.040;18.400;2023-06-10T09:44:21;12.38;;;7.55;;
74510;SDS011;62991;50.040;18.400;2023-06-10T09:47:23;13.75;;;6.68;;
74510;SDS011;62991;50.040;18.400;2023-06-10T09:50:25;11.85;;;6.38;;
74510;SDS011;62991;50.040;18.400;2023-06-10T09:53:26;12.65;;;6.50;;
74510;SDS011;62991;50.040;18.400;2023-06-10T09:56:36;10.70;;;6.22;;
74510;SDS011;62991;50.040;18.400;2023-06-10T10:02:47;16.38;;;6.85;;
74510;SDS011;62991;50.040;18.400;2023-06-10T10:05:48;11.02;;;6.72;;
74510;SDS011;62991;50.040;18.400;2023-06-10T10:08:50;14.63;;;7.25;;
74510;SDS011;62991;50.040;18.400;2023-06-10T10:11:51;11.50;;;6.95;;
74510;SDS011;62991;50.040;18.400;2023-06-10T10:14:53;10.73;;;6.82;;
74510;SDS011;62991;50.040;18.400;2023-06-10T10:17:58;12.23;;;7.45;;
74510;SDS011;62991;50.040;18.400;2023-06-10T10:21:12;12.32;;;7.00;;
74510;SDS011;62991;50.040;18.400;2023-06-10T10:24:20;12.73;;;7.07;;
74510;SDS011;62991;50.040;18.400;2023-06-10T10:27:26;12.95;;;6.53;;
74510;SDS011;62991;50.040;18.400;2023-06-10T10:30:29;12.15;;;7.10;;
74510;SDS011;62991;50.040;18.400;2023-06-10T10:37:06;10.38;;;6.72;;
74510;SDS011;62991;50.040;18.400;2023-06-10T10:40:07;11.95;;;6.80;;
74510;SDS011;62991;50.040;18.400;2023-06-10T10:43:10;10.43;;;6.72;;
74510;SDS011;62991;50.040;18.400;2023-06-10T10:46:13;11.38;;;6.53;;
74510;SDS011;62991;50.040;18.400;2023-06-10T10:49:16;10.85;;;6.55;;
74510;SDS011;62991;50.040;18.400;2023-06-10T10:52:18;10.23;;;6.78;;
74510;SDS011;62991;50.040;18.400;2023-06-10T10:55:19;8.50;;;5.97;;
74510;SDS011;62991;50.040;18.400;2023-06-10T10:58:24;8.75;;;5.20;;
74510;SDS011;62991;50.040;18.400;2023-06-10T11:01:25;10.00;;;6.07;;
74510;SDS011;62991;50.040;18.400;2023-06-10T11:04:46;8.20;;;5.28;;
74510;SDS011;62991;50.040;18.400;2023-06-10T11:07:54;14.38;;;6.85;;
74510;SDS011;62991;50.040;18.400;2023-06-10T11:10:55;10.50;;;5.95;;
74510;SDS011;62991;50.040;18.400;2023-06-10T11:17:04;12.32;;;5.32;;
74510;SDS011;62991;50.040;18.400;2023-06-10T11:20:41;13.93;;;5.82;;
74510;SDS011;62991;50.040;18.400;2023-06-10T11:23:49;7.70;;;4.30;;
74510;SDS011;62991;50.040;18.400;2023-06-10T11:26:50;9.60;;;5.13;;
74510;SDS011;62991;50.040;18.400;2023-06-10T11:33:19;6.80;;;4.45;;
74510;SDS011;62991;50.040;18.400;2023-06-10T11:36:20;9.35;;;5.47;;
74510;SDS011;62991;50.040;18.400;2023-06-10T11:39:21;7.25;;;4.40;;
74510;SDS011;62991;50.040;18.400;2023-06-10T11:42:24;21.38;;;6.03;;
74510;SDS011;62991;50.040;18.400;2023-06-10T11:45:25;10.50;;;4.95;;
74510;SDS011;62991;50.040;18.400;2023-06-10T11:48:25;9.00;;;4.80;;
74510;SDS011;62991;50.040;18.400;2023-06-10T11:51:37;12.38;;;6.22;;
74510;SDS011;62991;50.040;18.400;2023-06-10T11:54:40;12.13;;;6.55;;
74510;SDS011;62991;50.040;18.400;2023-06-10T11:57:40;8.73;;;5.32;;
74510;SDS011;62991;50.040;18.400;2023-06-10T12:00:51;5.15;;;3.03;;
74510;SDS011;62991;50.040;18.400;2023-06-10T12:04:04;6.45;;;3.15;;
74510;SDS011;62991;50.040;18.400;2023-06-10T12:07:07;11.10;;;4.10;;
74510;SDS011;62991;50.040;18.400;2023-06-10T12:10:08;5.55;;;3.15;;
74510;SDS011;62991;50.040;18.400;2023-06-10T12:13:09;8.52;;;3.58;;
74510;SDS011;62991;50.040;18.400;2023-06-10T12:16:10;8.23;;;3.60;;
74510;SDS011;62991;50.040;18.400;2023-06-10T12:19:11;6.10;;;3.63;;
74510;SDS011;62991;50.040;18.400;2023-06-10T12:22:12;6.38;;;3.80;;
74510;SDS011;62991;50.040;18.400;2023-06-10T12:25:13;3.88;;;2.90;;
74510;SDS011;62991;50.040;18.400;2023-06-10T12:28:14;5.50;;;3.13;;
74510;SDS011;62991;50.040;18.400;2023-06-10T12:31:16;6.25;;;3.10;;
74510;SDS011;62991;50.040;18.400;2023-06-10T12:34:16;8.10;;;3.17;;
74510;SDS011;62991;50.040;18.400;2023-06-10T12:37:17;4.35;;;2.78;;
74510;SDS011;62991;50.040;18.400;2023-06-10T12:40:18;4.80;;;2.95;;
74510;SDS011;62991;50.040;18.400;2023-06-10T12:43:30;4.95;;;3.13;;
74510;SDS011;62991;50.040;18.400;2023-06-10T12:46:37;4.95;;;3.30;;
74510;SDS011;62991;50.040;18.400;2023-06-10T12:49:38;5.78;;;3.13;;
74510;SDS011;62991;50.040;18.400;2023-06-10T12:52:39;6.55;;;3.45;;
74510;SDS011;62991;50.040;18.400;2023-06-10T12:55:41;5.38;;;3.25;;
74510;SDS011;62991;50.040;18.400;2023-06-10T12:58:41;5.45;;;3.58;;
74510;SDS011;62991;50.040;18.400;2023-06-10T13:01:42;6.45;;;4.00;;
74510;SDS011;62991;50.040;18.400;2023-06-10T13:04:43;5.10;;;3.30;;
74510;SDS011;62991;50.040;18.400;2023-06-10T13:07:44;3.72;;;2.78;;
74510;SDS011;62991;50.040;18.400;2023-06-10T13:10:45;5.18;;;2.72;;
74510;SDS011;62991;50.040;18.400;2023-06-10T13:13:46;5.05;;;3.55;;
74510;SDS011;62991;50.040;18.400;2023-06-10T13:16:46;4.60;;;3.13;;
74510;SDS011;62991;50.040;18.400;2023-06-10T13:19:47;5.65;;;3.17;;
74510;SDS011;62991;50.040;18.400;2023-06-10T13:22:48;6.93;;;3.85;;
74510;SDS011;62991;50.040;18.400;2023-06-10T13:25:49;6.20;;;3.25;;
74510;SDS011;62991;50.040;18.400;2023-06-10T13:28:50;5.90;;;3.75;;
74510;SDS011;62991;50.040;18.400;2023-06-10T13:31:50;8.57;;;4.75;;
74510;SDS011;62991;50.040;18.400;2023-06-10T13:34:51;11.07;;;4.13;;
74510;SDS011;62991;50.040;18.400;2023-06-10T13:37:53;5.82;;;3.60;;
74510;SDS011;62991;50.040;18.400;2023-06-10T13:40:54;6.00;;;3.72;;
74510;SDS011;62991;50.040;18.400;2023-06-10T13:43:54;6.75;;;3.88;;
74510;SDS011;62991;50.040;18.400;2023-06-10T13:46:55;6.13;;;4.10;;
74510;SDS011;62991;50.040;18.400;2023-06-10T13:49:56;6.20;;;4.07;;
74510;SDS011;62991;50.040;18.400;2023-06-10T13:52:56;7.53;;;3.72;;
74510;SDS011;62991;50.040;18.400;2023-06-10T13:55:57;5.50;;;4.13;;
74510;SDS011;62991;50.040;18.400;2023-06-10T13:58:58;7.93;;;3.47;;
74510;SDS011;62991;50.040;18.400;2023-06-10T14:01:58;7.63;;;4.00;;
74510;SDS011;62991;50.040;18.400;2023-06-10T14:05:00;5.95;;;3.85;;
74510;SDS011;62991;50.040;18.400;2023-06-10T14:08:01;6.60;;;3.97;;
74510;SDS011;62991;50.040;18.400;2023-06-10T14:11:02;8.48;;;4.32;;
74510;SDS011;62991;50.040;18.400;2023-06-10T14:14:03;7.75;;;3.90;;
74510;SDS011;62991;50.040;18.400;2023-06-10T14:17:04;7.68;;;4.03;;
74510;SDS011;62991;50.040;18.400;2023-06-10T14:20:05;7.47;;;3.92;;
74510;SDS011;62991;50.040;18.400;2023-06-10T14:23:07;8.40;;;4.20;;
74510;SDS011;62991;50.040;18.400;2023-06-10T14:26:07;6.57;;;4.00;;
74510;SDS011;62991;50.040;18.400;2023-06-10T14:29:08;8.40;;;4.60;;
74510;SDS011;62991;50.040;18.400;2023-06-10T14:32:09;6.28;;;4.00;;
74510;SDS011;62991;50.040;18.400;2023-06-10T14:35:09;7.13;;;4.22;;
74510;SDS011;62991;50.040;18.400;2023-06-10T14:38:10;8.52;;;5.15;;
74510;SDS011;62991;50.040;18.400;2023-06-10T14:41:11;6.65;;;4.30;;
74510;SDS011;62991;50.040;18.400;2023-06-10T14:44:12;5.82;;;4.40;;
74510;SDS011;62991;50.040;18.400;2023-06-10T14:47:12;5.78;;;4.35;;
74510;SDS011;62991;50.040;18.400;2023-06-10T14:50:13;5.97;;;3.90;;
74510;SDS011;62991;50.040;18.400;2023-06-10T14:53:14;5.68;;;3.97;;
74510;SDS011;62991;50.040;18.400;2023-06-10T14:56:15;5.75;;;3.95;;
74510;SDS011;62991;50.040;18.400;2023-06-10T14:59:16;7.82;;;4.53;;
74510;SDS011;62991;50.040;18.400;2023-06-10T15:02:16;5.55;;;3.85;;
74510;SDS011;62991;50.040;18.400;2023-06-10T15:05:17;7.03;;;4.88;;
74510;SDS011;62991;50.040;18.400;2023-06-10T15:08:21;6.18;;;4.18;;
74510;SDS011;62991;50.040;18.400;2023-06-10T15:11:22;7.40;;;4.13;;
74510;SDS011;62991;50.040;18.400;2023-06-10T15:14:22;6.25;;;4.05;;
74510;SDS011;62991;50.040;18.400;2023-06-10T15:17:23;6.07;;;3.75;;
74510;SDS011;62991;50.040;18.400;2023-06-10T15:20:24;11.27;;;4.15;;
74510;SDS011;62991;50.040;18.400;2023-06-10T15:23:24;7.03;;;3.50;;
74510;SDS011;62991;50.040;18.400;2023-06-10T15:26:25;8.63;;;4.32;;
74510;SDS011;62991;50.040;18.400;2023-06-10T15:29:26;8.10;;;3.25;;
74510;SDS011;62991;50.040;18.400;2023-06-10T15:32:27;11.75;;;4.18;;
74510;SDS011;62991;50.040;18.400;2023-06-10T15:35:28;6.13;;;3.40;;
74510;SDS011;62991;50.040;18.400;2023-06-10T15:38:28;5.38;;;3.53;;
74510;SDS011;62991;50.040;18.400;2023-06-10T15:41:29;7.72;;;3.33;;
74510;SDS011;62991;50.040;18.400;2023-06-10T15:44:30;5.93;;;3.60;;
74510;SDS011;62991;50.040;18.400;2023-06-10T15:47:31;5.65;;;3.45;;
74510;SDS011;62991;50.040;18.400;2023-06-10T15:50:31;7.18;;;3.35;;
74510;SDS011;62991;50.040;18.400;2023-06-10T15:53:32;8.15;;;5.78;;
74510;SDS011;62991;50.040;18.400;2023-06-10T15:56:33;8.23;;;3.90;;
74510;SDS011;62991;50.040;18.400;2023-06-10T15:59:34;6.30;;;3.80;;
74510;SDS011;62991;50.040;18.400;2023-06-10T16:02:34;6.63;;;3.22;;
74510;SDS011;62991;50.040;18.400;2023-06-10T16:05:35;5.82;;;3.58;;
74510;SDS011;62991;50.040;18.400;2023-06-10T16:08:36;6.32;;;3.45;;
74510;SDS011;62991;50.040;18.400;2023-06-10T16:11:36;7.32;;;3.85;;
74510;SDS011;62991;50.040;18.400;2023-06-10T16:14:37;6.32;;;3.60;;
74510;SDS011;62991;50.040;18.400;2023-06-10T16:17:38;7.47;;;3.85;;
74510;SDS011;62991;50.040;18.400;2023-06-10T16:20:39;8.50;;;4.47;;
74510;SDS011;62991;50.040;18.400;2023-06-10T16:23:39;6.53;;;3.53;;
74510;SDS011;62991;50.040;18.400;2023-06-10T16:26:40;6.82;;;3.25;;
74510;SDS011;62991;50.040;18.400;2023-06-10T16:29:41;6.25;;;3.72;;
74510;SDS011;62991;50.040;18.400;2023-06-10T16:32:41;11.75;;;4.05;;
74510;SDS011;62991;50.040;18.400;2023-06-10T16:35:42;9.20;;;4.88;;
74510;SDS011;62991;50.040;18.400;2023-06-10T16:38:43;6.10;;;3.50;;
74510;SDS011;62991;50.040;18.400;2023-06-10T16:41:44;7.60;;;4.10;;
74510;SDS011;62991;50.040;18.400;2023-06-10T16:44:44;9.02;;;4.03;;
74510;SDS011;62991;50.040;18.400;2023-06-10T16:47:45;6.50;;;4.32;;
74510;SDS011;62991;50.040;18.400;2023-06-10T16:50:46;8.45;;;4.40;;
74510;SDS011;62991;50.040;18.400;2023-06-10T16:53:47;7.75;;;4.60;;
74510;SDS011;62991;50.040;18.400;2023-06-10T16:56:47;10.07;;;4.95;;
74510;SDS011;62991;50.040;18.400;2023-06-10T16:59:48;9.40;;;5.40;;
74510;SDS011;62991;50.040;18.400;2023-06-10T17:02:48;9.23;;;4.57;;
74510;SDS011;62991;50.040;18.400;2023-06-10T17:05:49;10.48;;;4.95;;
74510;SDS011;62991;50.040;18.400;2023-06-10T17:08:50;9.10;;;5.20;;
74510;SDS011;62991;50.040;18.400;2023-06-10T17:11:51;10.02;;;5.05;;
74510;SDS011;62991;50.040;18.400;2023-06-10T17:14:51;18.20;;;8.98;;
74510;SDS011;62991;50.040;18.400;2023-06-10T17:17:52;17.40;;;8.73;;
74510;SDS011;62991;50.040;18.400;2023-06-10T17:20:53;18.65;;;8.77;;
74510;SDS011;62991;50.040;18.400;2023-06-10T17:23:54;14.98;;;7.85;;
74510;SDS011;62991;50.040;18.400;2023-06-10T17:26:54;14.38;;;7.85;;
74510;SDS011;62991;50.040;18.400;2023-06-10T17:29:55;13.88;;;8.10;;
74510;SDS011;62991;50.040;18.400;2023-06-10T17:32:56;18.45;;;10.38;;
74510;SDS011;62991;50.040;18.400;2023-06-10T17:35:56;9.20;;;5.45;;
74510;SDS011;62991;50.040;18.400;2023-06-10T17:38:57;9.80;;;5.45;;
74510;SDS011;62991;50.040;18.400;2023-06-10T17:41:58;13.80;;;6.60;;
74510;SDS011;62991;50.040;18.400;2023-06-10T17:44:59;10.32;;;5.75;;
74510;SDS011;62991;50.040;18.400;2023-06-10T17:47:59;10.57;;;5.38;;
74510;SDS011;62991;50.040;18.400;2023-06-10T17:51:00;8.60;;;5.78;;
74510;SDS011;62991;50.040;18.400;2023-06-10T17:54:01;8.38;;;5.03;;
74510;SDS011;62991;50.040;18.400;2023-06-10T17:57:01;11.15;;;6.47;;
74510;SDS011;62991;50.040;18.400;2023-06-10T18:00:02;10.10;;;5.97;;
74510;SDS011;62991;50.040;18.400;2023-06-10T18:03:03;12.00;;;5.80;;